Time;durP1;ratioP1;P1;durP2;ratioP2;P2;SDS_P1;SDS_P2;PMS_P1;PMS_P2;Temp;Humidity;BMP_temperature;BMP_pressure;BME280_temperature;BME280_humidity;BME280_pressure;Samples;Min_cycle;Max_cycle;Signal;HPM_P1;HPM_P2
2024/04/09 00:01:25;;;;;;;20.70;19.00;;;;;;;;;;5488309;26;20488;-76
2024/04/09 00:03:55;;;;;;;20.83;19.30;;;;;;;;;;5488185;26;20996;-76
2024/04/09 00:06:25;;;;;;;20.57;18.90;;;;;;;;;;5489347;26;20763;-76
2024/04/09 00:08:53;;;;;;;19.97;18.10;;;;;;;;;;5488057;26;20515;-76
2024/04/09 00:11:24;;;;;;;20.93;19.03;;;;;;;;;;5488609;26;20456;-76
2024/04/09 00:13:51;;;;;;;20.20;18.73;;;;;;;;;;5488006;26;20934;-76
2024/04/09 00:16:22;;;;;;;21.73;19.87;;;;;;;;;;5488492;26;20460;-76
2024/04/09 00:18:48;;;;;;;21.80;20.00;;;;;;;;;;5487082;26;20520;-77
2024/04/09 00:21:20;;;;;;;20.83;19.20;;;;;;;;;;5487945;26;20511;-76
2024/04/09 00:23:47;;;;;;;20.03;18.60;;;;;;;;;;5488843;26;20500;-75
2024/04/09 00:26:16;;;;;;;20.63;19.10;;;;;;;;;;5488499;26;20432;-77
2024/04/09 00:28:42;;;;;;;20.97;19.37;;;;;;;;;;5487880;26;20440;-76
2024/04/09 00:31:11;;;;;;;21.33;19.10;;;;;;;;;;5487962;26;20589;-76
2024/04/09 00:33:37;;;;;;;20.90;19.17;;;;;;;;;;5488073;26;20807;-77
2024/04/09 00:36:09;;;;;;;19.60;18.20;;;;;;;;;;5488700;26;20490;-78
2024/04/09 00:38:38;;;;;;;21.87;19.80;;;;;;;;;;5487786;26;20440;-76
2024/04/09 00:41:10;;;;;;;20.77;18.97;;;;;;;;;;5487670;26;20448;-76
2024/04/09 00:43:37;;;;;;;20.60;18.87;;;;;;;;;;5487981;26;20599;-75
2024/04/09 00:46:05;;;;;;;20.63;18.90;;;;;;;;;;5487803;26;20459;-76
2024/04/09 00:48:33;;;;;;;20.83;19.13;;;;;;;;;;5487014;26;20497;-76
2024/04/09 00:51:01;;;;;;;21.13;19.43;;;;;;;;;;5487475;26;20460;-76
2024/04/09 00:53:28;;;;;;;21.07;18.83;;;;;;;;;;5487912;26;20479;-76
2024/04/09 00:56:01;;;;;;;22.63;20.57;;;;;;;;;;5488092;26;20529;-76
2024/04/09 00:58:27;;;;;;;21.27;19.37;;;;;;;;;;5487866;26;20520;-75
2024/04/09 01:00:56;;;;;;;20.53;18.87;;;;;;;;;;5487098;26;20710;-76
2024/04/09 01:03:22;;;;;;;20.77;19.30;;;;;;;;;;5487740;26;20455;-76
2024/04/09 01:05:52;;;;;;;21.37;19.67;;;;;;;;;;5487859;26;20495;-76
2024/04/09 01:08:18;;;;;;;20.97;18.90;;;;;;;;;;5487320;26;20494;-76
2024/04/09 01:10:47;;;;;;;23.00;20.03;;;;;;;;;;5487695;26;20936;-76
2024/04/09 01:13:15;;;;;;;21.47;19.40;;;;;;;;;;5486757;26;20461;-76
2024/04/09 01:15:44;;;;;;;20.33;18.63;;;;;;;;;;5487504;26;20584;-76
2024/04/09 01:18:10;;;;;;;21.23;19.33;;;;;;;;;;5486463;26;20445;-75
2024/04/09 01:20:39;;;;;;;22.00;18.93;;;;;;;;;;5487359;26;20468;-76
2024/04/09 01:23:08;;;;;;;21.10;19.30;;;;;;;;;;5487265;26;20433;-77
2024/04/09 01:25:36;;;;;;;20.53;18.40;;;;;;;;;;5487885;26;20443;-76
2024/04/09 01:28:04;;;;;;;21.43;19.53;;;;;;;;;;5487087;26;20458;-77
2024/04/09 01:30:32;;;;;;;20.17;18.77;;;;;;;;;;5486258;26;20975;-76
2024/04/09 01:32:58;;;;;;;21.77;19.33;;;;;;;;;;5487189;26;20456;-77
2024/04/09 01:35:27;;;;;;;20.93;19.33;;;;;;;;;;5488097;26;20452;-76
2024/04/09 01:41:02;;;;;;;22.63;20.53;;;;;;;;;;5455346;26;21141;-76
2024/04/09 01:43:28;;;;;;;23.07;19.13;;;;;;;;;;5483660;26;20605;-77
2024/04/09 01:45:57;;;;;;;21.33;19.60;;;;;;;;;;5487166;26;21030;-76
2024/04/09 01:48:23;;;;;;;22.80;20.13;;;;;;;;;;5458975;26;20437;-76
2024/04/09 01:50:51;;;;;;;21.43;19.37;;;;;;;;;;5449873;26;20567;-77
2024/04/09 01:53:18;;;;;;;21.83;19.77;;;;;;;;;;5450281;26;20468;-75
2024/04/09 01:55:46;;;;;;;21.30;19.30;;;;;;;;;;5450409;26;20471;-77
2024/04/09 01:58:18;;;;;;;23.57;20.93;;;;;;;;;;5451460;26;20467;-77
2024/04/09 02:00:46;;;;;;;20.77;19.20;;;;;;;;;;5486249;26;20472;-77
2024/04/09 02:03:12;;;;;;;22.20;20.30;;;;;;;;;;5486739;26;20511;-75
2024/04/09 02:05:41;;;;;;;23.97;19.20;;;;;;;;;;5486558;26;20484;-74
2024/04/09 02:08:07;;;;;;;22.53;20.10;;;;;;;;;;5485751;26;20502;-76
2024/04/09 02:10:36;;;;;;;22.07;19.83;;;;;;;;;;5486645;26;20464;-76
2024/04/09 02:13:03;;;;;;;22.30;20.60;;;;;;;;;;5486419;26;20735;-76
2024/04/09 02:15:34;;;;;;;21.90;19.60;;;;;;;;;;5486668;26;20445;-77
2024/04/09 02:18:01;;;;;;;28.73;20.87;;;;;;;;;;5486175;26;20455;-77
2024/04/09 02:20:30;;;;;;;22.57;20.20;;;;;;;;;;5485825;26;20537;-77
2024/04/09 02:22:56;;;;;;;23.57;21.23;;;;;;;;;;5485474;26;20539;-76
2024/04/09 02:25:25;;;;;;;23.30;21.03;;;;;;;;;;5485870;26;20505;-76
2024/04/09 02:27:51;;;;;;;22.43;20.13;;;;;;;;;;5486091;26;20456;-77
2024/04/09 02:30:20;;;;;;;23.90;21.37;;;;;;;;;;5485504;26;20417;-76
2024/04/09 02:32:49;;;;;;;29.43;21.47;;;;;;;;;;5485206;26;20796;-76
2024/04/09 02:35:19;;;;;;;22.20;20.23;;;;;;;;;;5485804;26;20467;-77
2024/04/09 02:37:46;;;;;;;22.40;20.27;;;;;;;;;;5485872;26;20455;-76
2024/04/09 02:40:17;;;;;;;22.90;20.80;;;;;;;;;;5485309;26;20907;-76
2024/04/09 02:42:44;;;;;;;22.63;20.43;;;;;;;;;;5488638;26;20544;-77
2024/04/09 02:45:13;;;;;;;22.67;20.10;;;;;;;;;;5489766;26;20516;-75
2024/04/09 02:47:39;;;;;;;22.10;20.40;;;;;;;;;;5489482;26;20463;-76
2024/04/09 02:50:11;;;;;;;22.40;20.33;;;;;;;;;;5471256;26;20901;-78
2024/04/09 02:52:38;;;;;;;23.57;21.13;;;;;;;;;;5453118;26;20553;-75
2024/04/09 02:55:07;;;;;;;24.27;21.83;;;;;;;;;;5452808;26;20440;-76
2024/04/09 02:57:33;;;;;;;27.73;20.83;;;;;;;;;;5452990;26;20440;-77
2024/04/09 03:00:09;;;;;;;24.77;22.10;;;;;;;;;;5452138;26;20491;-76
2024/04/09 03:02:35;;;;;;;24.00;22.13;;;;;;;;;;5452940;26;20601;-77
2024/04/09 03:05:03;;;;;;;25.10;21.00;;;;;;;;;;5453429;26;20911;-75
2024/04/09 03:07:32;;;;;;;23.83;21.30;;;;;;;;;;5452647;26;20539;-77
2024/04/09 03:10:01;;;;;;;26.00;21.97;;;;;;;;;;5452752;26;20514;-76
2024/04/09 03:12:27;;;;;;;24.73;22.13;;;;;;;;;;5451174;26;20468;-76
2024/04/09 03:14:56;;;;;;;23.60;21.67;;;;;;;;;;5453196;26;20492;-77
2024/04/09 03:17:22;;;;;;;32.17;21.10;;;;;;;;;;5451936;26;20497;-76
2024/04/09 03:19:51;;;;;;;25.97;22.33;;;;;;;;;;5452344;26;20852;-74
2024/04/09 03:22:17;;;;;;;23.70;21.20;;;;;;;;;;5453813;26;20488;-77
2024/04/09 03:24:49;;;;;;;25.27;22.57;;;;;;;;;;5452562;26;20517;-75
2024/04/09 03:27:16;;;;;;;23.80;21.70;;;;;;;;;;5452531;26;20454;-77
2024/04/09 03:29:44;;;;;;;23.80;21.37;;;;;;;;;;5452228;26;20453;-76
2024/04/09 03:32:10;;;;;;;29.80;24.13;;;;;;;;;;5452539;26;20482;-76
2024/04/09 03:34:39;;;;;;;24.63;22.37;;;;;;;;;;5452516;26;20458;-76
2024/04/09 03:37:05;;;;;;;27.33;23.23;;;;;;;;;;5451977;26;20514;-77
2024/04/09 03:39:34;;;;;;;27.57;22.63;;;;;;;;;;5452303;26;20457;-76
2024/04/09 03:42:05;;;;;;;28.90;23.03;;;;;;;;;;5451482;26;20549;-76
2024/04/09 03:44:33;;;;;;;26.83;22.20;;;;;;;;;;5452456;26;20442;-76
2024/04/09 03:47:03;;;;;;;24.77;22.27;;;;;;;;;;5452168;26;20448;-76
2024/04/09 03:49:32;;;;;;;26.47;22.50;;;;;;;;;;5451829;26;20468;-76
2024/04/09 03:51:58;;;;;;;25.03;22.40;;;;;;;;;;5452577;26;20525;-78
2024/04/09 03:54:27;;;;;;;25.03;22.57;;;;;;;;;;5451169;26;20490;-76
2024/04/09 03:56:53;;;;;;;26.50;23.90;;;;;;;;;;5452333;26;20510;-76
2024/04/09 03:59:24;;;;;;;26.60;22.53;;;;;;;;;;5451132;26;20527;-77
2024/04/09 04:01:50;;;;;;;24.87;22.47;;;;;;;;;;5452053;26;20526;-77
2024/04/09 04:04:18;;;;;;;26.33;22.67;;;;;;;;;;5452713;26;20822;-77
2024/04/09 04:06:45;;;;;;;28.73;23.10;;;;;;;;;;5452227;26;20583;-77
2024/04/09 04:09:14;;;;;;;24.97;22.67;;;;;;;;;;5451086;26;20425;-76
2024/04/09 04:11:40;;;;;;;24.60;22.00;;;;;;;;;;5451722;26;20619;-76
2024/04/09 04:14:09;;;;;;;26.60;21.40;;;;;;;;;;5452013;26;20466;-76
2024/04/09 04:16:37;;;;;;;24.50;22.33;;;;;;;;;;5451958;26;20457;-77
2024/04/09 04:19:06;;;;;;;25.80;22.50;;;;;;;;;;5451098;26;20462;-76
2024/04/09 04:21:32;;;;;;;23.93;21.80;;;;;;;;;;5451105;26;20526;-76
2024/04/09 04:24:01;;;;;;;23.80;21.73;;;;;;;;;;5451260;26;20502;-76
2024/04/09 04:26:27;;;;;;;31.10;22.40;;;;;;;;;;5451574;26;20518;-76
2024/04/09 04:28:59;;;;;;;26.07;22.87;;;;;;;;;;5451170;26;20521;-75
2024/04/09 04:31:25;;;;;;;25.03;22.73;;;;;;;;;;5451409;26;21005;-76
2024/04/09 04:33:57;;;;;;;26.40;23.70;;;;;;;;;;5451518;26;20529;-76
2024/04/09 04:36:23;;;;;;;24.13;21.90;;;;;;;;;;5452550;26;20466;-76
2024/04/09 04:38:52;;;;;;;25.00;22.53;;;;;;;;;;5450569;26;20573;-73
2024/04/09 04:41:18;;;;;;;24.87;22.53;;;;;;;;;;5456572;26;20500;-73
2024/04/09 04:43:46;;;;;;;24.47;22.03;;;;;;;;;;5485623;26;21326;-73
2024/04/09 04:46:12;;;;;;;24.43;22.23;;;;;;;;;;5486290;26;20567;-73
2024/04/09 04:48:43;;;;;;;23.87;21.60;;;;;;;;;;5486090;26;20439;-73
2024/04/09 04:51:11;;;;;;;24.70;22.60;;;;;;;;;;5485494;26;20479;-73
2024/04/09 04:53:40;;;;;;;24.90;22.77;;;;;;;;;;5486142;26;20528;-73
2024/04/09 04:56:06;;;;;;;29.67;22.40;;;;;;;;;;5486391;26;20964;-74
2024/04/09 04:58:35;;;;;;;24.37;22.17;;;;;;;;;;5452854;26;20497;-73
2024/04/09 05:01:01;;;;;;;24.03;21.90;;;;;;;;;;5453852;26;20601;-74
2024/04/09 05:03:30;;;;;;;24.67;22.10;;;;;;;;;;5449661;26;20509;-73
2024/04/09 05:05:56;;;;;;;26.93;23.40;;;;;;;;;;5448425;26;20824;-73
2024/04/09 05:08:27;;;;;;;25.90;22.50;;;;;;;;;;5449382;26;20800;-73
2024/04/09 05:10:53;;;;;;;23.60;21.50;;;;;;;;;;5449979;26;21140;-73
2024/04/09 05:13:22;;;;;;;25.07;22.43;;;;;;;;;;5448453;26;20472;-74
2024/04/09 05:15:48;;;;;;;24.53;22.37;;;;;;;;;;5449981;26;20437;-73
2024/04/09 05:18:16;;;;;;;25.17;22.73;;;;;;;;;;5448609;26;20548;-72
2024/04/09 05:20:42;;;;;;;25.50;22.83;;;;;;;;;;5480175;26;20769;-73
2024/04/09 05:23:11;;;;;;;23.80;21.20;;;;;;;;;;5483419;26;20456;-72
2024/04/09 05:25:40;;;;;;;22.83;21.00;;;;;;;;;;5468067;26;20456;-74
2024/04/09 05:28:08;;;;;;;23.43;21.10;;;;;;;;;;5448351;26;20496;-74
2024/04/09 05:30:34;;;;;;;25.63;23.13;;;;;;;;;;5449503;26;21404;-73
2024/04/09 05:33:03;;;;;;;24.10;21.83;;;;;;;;;;5449531;26;20496;-75
2024/04/09 05:35:29;;;;;;;23.87;21.63;;;;;;;;;;5452173;26;20480;-73
2024/04/09 05:37:58;;;;;;;24.93;22.93;;;;;;;;;;5450692;26;21232;-73
2024/04/09 05:40:24;;;;;;;24.50;21.20;;;;;;;;;;5449860;26;20461;-74
2024/04/09 05:42:55;;;;;;;23.47;21.27;;;;;;;;;;5449936;26;20556;-74
2024/04/09 05:45:24;;;;;;;24.20;21.70;;;;;;;;;;5450747;26;20480;-74
2024/04/09 05:47:50;;;;;;;24.17;22.00;;;;;;;;;;5450045;26;20436;-76
2024/04/09 05:50:19;;;;;;;24.17;21.73;;;;;;;;;;5447990;26;20458;-75
2024/04/09 05:52:47;;;;;;;26.00;23.60;;;;;;;;;;5449950;26;20509;-73
2024/04/09 05:55:16;;;;;;;24.07;21.93;;;;;;;;;;5449961;26;20578;-74
2024/04/09 05:57:42;;;;;;;29.50;22.90;;;;;;;;;;5451636;26;20470;-75
2024/04/09 06:00:14;;;;;;;23.23;21.03;;;;;;;;;;5483232;26;20550;-73
2024/04/09 06:02:44;;;;;;;24.90;22.70;;;;;;;;;;5485121;26;21374;-74
2024/04/09 06:05:12;;;;;;;23.27;21.23;;;;;;;;;;5485964;26;20983;-73
2024/04/09 06:07:38;;;;;;;22.83;21.00;;;;;;;;;;5486051;26;20491;-73
2024/04/09 06:10:07;;;;;;;26.37;23.90;;;;;;;;;;5485432;26;20481;-74
2024/04/09 06:12:33;;;;;;;22.80;21.03;;;;;;;;;;5486877;26;20470;-74
2024/04/09 06:15:02;;;;;;;23.97;21.57;;;;;;;;;;5486059;26;20552;-73
2024/04/09 06:17:31;;;;;;;23.87;21.80;;;;;;;;;;5488684;26;20467;-73
2024/04/09 06:20:00;;;;;;;23.57;21.27;;;;;;;;;;5489029;26;20491;-74
2024/04/09 06:22:26;;;;;;;26.07;21.80;;;;;;;;;;5455827;26;20468;-75
2024/04/09 06:24:54;;;;;;;23.27;21.30;;;;;;;;;;5489215;26;20436;-73
2024/04/09 06:27:21;;;;;;;24.07;21.17;;;;;;;;;;5489103;26;20497;-75
2024/04/09 06:29:50;;;;;;;24.63;22.03;;;;;;;;;;5488417;26;20814;-73
2024/04/09 06:32:16;;;;;;;22.43;20.23;;;;;;;;;;5470402;26;20458;-74
2024/04/09 06:34:47;;;;;;;21.97;20.00;;;;;;;;;;5459183;26;20458;-74
2024/04/09 06:37:13;;;;;;;23.30;21.40;;;;;;;;;;5477053;26;20975;-73
2024/04/09 06:39:42;;;;;;;24.50;21.90;;;;;;;;;;5481437;26;20968;-74
2024/04/09 06:42:08;;;;;;;23.30;21.10;;;;;;;;;;5451695;26;20536;-73
2024/04/09 06:44:36;;;;;;;22.50;20.40;;;;;;;;;;5452191;26;20426;-73
2024/04/09 06:47:02;;;;;;;23.60;21.60;;;;;;;;;;5479767;26;20516;-74
2024/04/09 06:49:31;;;;;;;22.70;20.97;;;;;;;;;;5451988;26;20520;-73
2024/04/09 06:52:00;;;;;;;24.43;20.60;;;;;;;;;;5452577;26;20985;-79
2024/04/09 06:54:28;;;;;;;23.60;21.73;;;;;;;;;;5483358;26;20546;-80
2024/04/09 06:56:55;;;;;;;24.03;21.57;;;;;;;;;;5454868;26;20810;-73
2024/04/09 06:59:25;;;;;;;22.37;20.67;;;;;;;;;;5451800;26;20582;-73
2024/04/09 07:01:51;;;;;;;22.13;20.43;;;;;;;;;;5453189;26;20462;-73
2024/04/09 07:04:20;;;;;;;24.80;22.57;;;;;;;;;;5452370;26;20600;-74
2024/04/09 07:06:46;;;;;;;36.80;21.03;;;;;;;;;;5451355;26;20456;-75
2024/04/09 07:09:17;;;;;;;22.23;20.33;;;;;;;;;;5496201;26;20548;-73
2024/04/09 07:11:44;;;;;;;23.00;21.00;;;;;;;;;;5489322;26;20494;-73
2024/04/09 07:14:13;;;;;;;22.20;20.30;;;;;;;;;;5476435;26;20480;-74
2024/04/09 07:16:41;;;;;;;20.80;19.40;;;;;;;;;;5470695;26;20504;-74
2024/04/09 07:19:10;;;;;;;21.10;19.37;;;;;;;;;;5479949;26;20529;-75
2024/04/09 07:21:36;;;;;;;20.63;19.00;;;;;;;;;;5485392;26;20458;-75
2024/04/09 07:24:05;;;;;;;22.27;20.10;;;;;;;;;;5508991;26;20466;-74
2024/04/09 07:26:34;;;;;;;22.23;20.53;;;;;;;;;;5506441;26;20483;-73
2024/04/09 07:29:03;;;;;;;20.50;18.90;;;;;;;;;;5485541;26;20504;-76
2024/04/09 07:31:29;;;;;;;20.97;19.40;;;;;;;;;;5487472;26;21059;-73
2024/04/09 07:33:58;;;;;;;21.93;19.83;;;;;;;;;;5488000;26;20536;-74
2024/04/09 07:36:24;;;;;;;22.10;20.30;;;;;;;;;;5507642;26;20801;-74
2024/04/09 07:38:53;;;;;;;21.93;20.33;;;;;;;;;;5505592;26;20476;-73
2024/04/09 07:41:22;;;;;;;25.33;23.03;;;;;;;;;;5485532;26;20497;-73
2024/04/09 07:43:55;;;;;;;24.17;22.27;;;;;;;;;;5498025;26;20501;-74
2024/04/09 07:46:21;;;;;;;23.17;21.30;;;;;;;;;;5450534;26;20526;-74
2024/04/09 07:48:50;;;;;;;22.83;20.97;;;;;;;;;;5450503;26;20481;-74
2024/04/09 07:51:16;;;;;;;23.87;21.50;;;;;;;;;;5450383;26;20903;-73
2024/04/09 07:53:45;;;;;;;22.40;20.17;;;;;;;;;;5450050;26;20496;-73
2024/04/09 07:56:12;;;;;;;22.60;20.90;;;;;;;;;;5452418;26;20454;-73
2024/04/09 07:58:41;;;;;;;23.90;21.90;;;;;;;;;;5450475;26;20985;-74
2024/04/09 08:01:09;;;;;;;24.37;22.37;;;;;;;;;;5450597;26;20465;-73
2024/04/09 08:03:38;;;;;;;23.83;22.03;;;;;;;;;;5451007;26;20457;-75
2024/04/09 08:06:06;;;;;;;25.57;23.40;;;;;;;;;;5450897;26;20462;-75
2024/04/09 08:08:34;;;;;;;24.27;22.47;;;;;;;;;;5450337;26;20458;-73
2024/04/09 08:11:00;;;;;;;23.63;21.93;;;;;;;;;;5450402;26;20527;-73
2024/04/09 08:13:29;;;;;;;21.87;20.03;;;;;;;;;;5481628;26;21482;-75
2024/04/09 08:15:56;;;;;;;23.90;22.20;;;;;;;;;;5524326;26;20455;-75
2024/04/09 08:18:27;;;;;;;23.80;22.30;;;;;;;;;;5485313;26;20472;-74
2024/04/09 08:20:54;;;;;;;24.10;21.97;;;;;;;;;;5462736;26;20488;-73
2024/04/09 08:23:22;;;;;;;25.30;22.83;;;;;;;;;;5485537;26;20481;-73
2024/04/09 08:25:49;;;;;;;24.60;22.60;;;;;;;;;;5486907;26;20791;-74
2024/04/09 08:28:18;;;;;;;24.97;23.37;;;;;;;;;;5486089;26;20451;-73
2024/04/09 08:30:44;;;;;;;24.30;22.53;;;;;;;;;;5480808;26;20579;-74
2024/04/09 08:33:13;;;;;;;24.93;23.13;;;;;;;;;;5485239;26;20519;-75
2024/04/09 08:35:44;;;;;;;24.57;22.60;;;;;;;;;;5480055;26;20524;-74
2024/04/09 08:38:13;;;;;;;23.60;22.10;;;;;;;;;;5456144;26;20545;-75
2024/04/09 08:40:39;;;;;;;24.70;22.90;;;;;;;;;;5449678;26;20458;-74
2024/04/09 08:43:08;;;;;;;24.97;23.17;;;;;;;;;;5448495;26;20485;-74
2024/04/09 08:45:36;;;;;;;25.40;23.30;;;;;;;;;;5452388;26;20908;-74
2024/04/09 08:48:07;;;;;;;23.90;22.20;;;;;;;;;;5454425;26;20462;-74
2024/04/09 08:50:34;;;;;;;25.63;23.93;;;;;;;;;;5487532;26;20464;-73
2024/04/09 08:53:05;;;;;;;25.83;24.03;;;;;;;;;;5457360;26;20523;-73
2024/04/09 08:55:33;;;;;;;24.83;22.97;;;;;;;;;;5450952;26;20772;-73
2024/04/09 08:58:01;;;;;;;25.40;23.80;;;;;;;;;;5450605;26;20470;-74
2024/04/09 09:00:27;;;;;;;25.50;23.80;;;;;;;;;;5450250;26;20485;-73
2024/04/09 09:02:56;;;;;;;23.33;21.83;;;;;;;;;;5450587;26;20469;-76
2024/04/09 09:05:22;;;;;;;24.77;23.17;;;;;;;;;;5450924;26;21363;-74
2024/04/09 09:08:00;;;;;;;25.37;23.67;;;;;;;;;;5450484;26;20587;-73
2024/04/09 09:10:29;;;;;;;23.67;22.17;;;;;;;;;;5450453;26;20541;-73
2024/04/09 09:13:02;;;;;;;23.80;22.20;;;;;;;;;;5450342;26;20454;-73
2024/04/09 09:15:28;;;;;;;25.47;23.47;;;;;;;;;;5451364;26;21070;-73
2024/04/09 09:17:57;;;;;;;22.10;20.80;;;;;;;;;;5451071;26;20806;-73
2024/04/09 09:20:23;;;;;;;27.70;26.10;;;;;;;;;;5450049;26;20489;-72
2024/04/09 09:22:54;;;;;;;43.63;41.13;;;;;;;;;;5449794;26;21068;-73
2024/04/09 09:25:22;;;;;;;37.33;35.13;;;;;;;;;;5451445;26;20512;-73
2024/04/09 09:28:06;;;;;;;37.40;35.00;;;;;;;;;;5449805;26;20465;-73
2024/04/09 09:30:37;;;;;;;41.87;39.27;;;;;;;;;;5449741;26;20467;-73
2024/04/09 09:33:06;;;;;;;44.27;41.67;;;;;;;;;;5449013;26;21031;-73
2024/04/09 09:35:35;;;;;;;39.60;37.30;;;;;;;;;;5449695;26;20465;-73
2024/04/09 09:38:04;;;;;;;40.30;37.70;;;;;;;;;;5450025;26;20439;-74
2024/04/09 09:40:31;;;;;;;31.67;29.97;;;;;;;;;;5450189;26;20463;-73
2024/04/09 09:43:03;;;;;;;38.33;36.13;;;;;;;;;;5449104;26;20825;-74
2024/04/09 09:45:29;;;;;;;37.20;34.90;;;;;;;;;;5449855;26;20435;-73
2024/04/09 09:47:59;;;;;;;38.60;36.40;;;;;;;;;;5449914;26;20559;-73
2024/04/09 09:50:26;;;;;;;36.17;33.97;;;;;;;;;;5448369;26;20536;-73
2024/04/09 09:52:55;;;;;;;39.80;35.83;;;;;;;;;;5448969;26;20516;-73
2024/04/09 09:55:21;;;;;;;34.60;32.30;;;;;;;;;;5450065;26;20496;-75
2024/04/09 09:57:50;;;;;;;27.50;26.00;;;;;;;;;;5484021;26;21018;-75
2024/04/09 10:00:20;;;;;;;24.90;23.60;;;;;;;;;;5485491;26;20497;-73
2024/04/09 10:02:50;;;;;;;23.73;22.33;;;;;;;;;;5485405;26;20518;-73
2024/04/09 10:05:17;;;;;;;22.57;21.37;;;;;;;;;;5486117;26;21031;-73
2024/04/09 10:07:50;;;;;;;22.27;21.07;;;;;;;;;;5486295;26;20494;-73
2024/04/09 10:10:24;;;;;;;23.50;22.20;;;;;;;;;;5485593;26;20499;-73
2024/04/09 10:12:55;;;;;;;23.97;22.57;;;;;;;;;;5459143;26;20545;-73
2024/04/09 10:15:28;;;;;;;22.40;21.10;;;;;;;;;;5448509;26;20532;-72
2024/04/09 10:18:03;;;;;;;22.77;21.30;;;;;;;;;;5448836;26;20558;-73
2024/04/09 10:20:35;;;;;;;20.20;19.20;;;;;;;;;;5448850;26;20818;-73
2024/04/09 10:23:02;;;;;;;20.30;19.10;;;;;;;;;;5448503;26;21017;-72
2024/04/09 10:25:34;;;;;;;20.07;18.87;;;;;;;;;;5448440;26;20447;-72
2024/04/09 10:28:01;;;;;;;19.27;18.17;;;;;;;;;;5449067;26;20428;-73
2024/04/09 10:30:39;;;;;;;18.97;17.90;;;;;;;;;;5448578;26;20484;-73
2024/04/09 10:33:06;;;;;;;21.10;19.50;;;;;;;;;;5449063;26;20466;-73
2024/04/09 10:35:35;;;;;;;19.47;18.47;;;;;;;;;;5447957;26;20531;-73
2024/04/09 10:38:04;;;;;;;19.13;18.13;;;;;;;;;;5448232;26;20527;-72
2024/04/09 10:40:34;;;;;;;20.30;19.00;;;;;;;;;;5448723;26;20505;-73
2024/04/09 10:43:02;;;;;;;20.40;19.20;;;;;;;;;;5448771;26;20480;-73
2024/04/09 10:45:35;;;;;;;20.53;19.17;;;;;;;;;;5448505;26;20484;-73
2024/04/09 10:48:01;;;;;;;22.43;20.83;;;;;;;;;;5448930;26;20497;-71
2024/04/09 10:50:30;;;;;;;21.37;19.97;;;;;;;;;;5448339;26;20490;-73
2024/04/09 10:52:56;;;;;;;21.33;19.90;;;;;;;;;;5449036;26;20449;-72
2024/04/09 10:55:25;;;;;;;19.87;18.77;;;;;;;;;;5454394;26;20431;-72
2024/04/09 10:57:52;;;;;;;20.47;19.37;;;;;;;;;;5471314;26;20556;-73
2024/04/09 11:00:21;;;;;;;21.67;20.27;;;;;;;;;;5457435;26;20840;-73
2024/04/09 11:02:50;;;;;;;21.10;19.80;;;;;;;;;;5483863;26;20490;-73
2024/04/09 11:05:19;;;;;;;20.23;18.93;;;;;;;;;;5488090;26;20447;-72
2024/04/09 11:07:47;;;;;;;19.63;18.63;;;;;;;;;;5488394;26;20508;-73
2024/04/09 11:10:16;;;;;;;21.40;20.20;;;;;;;;;;5486981;26;20572;-72
2024/04/09 11:12:44;;;;;;;21.20;19.57;;;;;;;;;;5487246;26;20530;-72
2024/04/09 11:15:13;;;;;;;21.43;20.07;;;;;;;;;;5488266;26;20451;-73
2024/04/09 11:17:40;;;;;;;19.93;18.83;;;;;;;;;;5487523;26;20443;-73
2024/04/09 11:20:14;;;;;;;19.80;18.70;;;;;;;;;;5465439;26;20441;-74
2024/04/09 11:22:44;;;;;;;21.10;19.90;;;;;;;;;;5452008;26;20459;-72
2024/04/09 11:25:13;;;;;;;20.57;19.47;;;;;;;;;;5451273;26;20455;-71
2024/04/09 11:27:40;;;;;;;23.37;21.80;;;;;;;;;;5454457;26;20432;-74
2024/04/09 11:30:11;;;;;;;21.57;20.23;;;;;;;;;;5453499;26;20511;-73
2024/04/09 11:32:37;;;;;;;23.10;21.37;;;;;;;;;;5478770;26;21082;-72
2024/04/09 11:35:07;;;;;;;22.93;21.53;;;;;;;;;;5488507;26;20846;-73
2024/04/09 11:37:37;;;;;;;23.50;22.10;;;;;;;;;;5476615;26;20532;-78
2024/04/09 11:40:06;;;;;;;23.23;21.77;;;;;;;;;;5483712;26;21431;-78
2024/04/09 11:42:33;;;;;;;21.70;20.50;;;;;;;;;;5490776;26;20447;-77
2024/04/09 11:45:02;;;;;;;21.40;20.10;;;;;;;;;;5486939;26;20525;-78
2024/04/09 11:47:28;;;;;;;22.23;20.93;;;;;;;;;;5461088;26;20451;-79
2024/04/09 11:49:57;;;;;;;20.00;18.90;;;;;;;;;;5478196;26;21089;-79
2024/04/09 11:52:23;;;;;;;20.57;19.47;;;;;;;;;;5499598;26;21424;-80
2024/04/09 11:54:54;;;;;;;20.23;19.10;;;;;;;;;;5477757;26;20455;-73
2024/04/09 11:57:20;;;;;;;20.30;19.07;;;;;;;;;;5488580;26;20471;-73
2024/04/09 11:59:50;;;;;;;20.53;19.20;;;;;;;;;;5476252;26;20549;-72
2024/04/09 12:02:16;;;;;;;19.80;18.53;;;;;;;;;;5452761;26;20448;-73
2024/04/09 12:04:45;;;;;;;19.53;18.43;;;;;;;;;;5460061;26;20473;-72
2024/04/09 12:07:11;;;;;;;19.13;18.13;;;;;;;;;;5486704;26;20419;-73
2024/04/09 12:09:40;;;;;;;19.57;18.40;;;;;;;;;;5486976;26;20477;-72
2024/04/09 12:12:09;;;;;;;20.30;19.20;;;;;;;;;;5478011;26;20554;-74
2024/04/09 12:14:38;;;;;;;19.93;18.63;;;;;;;;;;5461069;26;20492;-73
2024/04/09 12:17:05;;;;;;;19.23;18.23;;;;;;;;;;5471095;26;20438;-73
2024/04/09 12:19:35;;;;;;;20.47;19.30;;;;;;;;;;5450537;26;21063;-73
2024/04/09 12:22:01;;;;;;;21.17;19.77;;;;;;;;;;5470828;26;20485;-73
2024/04/09 12:24:31;;;;;;;21.37;19.87;;;;;;;;;;5451331;26;20955;-73
2024/04/09 12:26:57;;;;;;;21.27;20.07;;;;;;;;;;5474641;26;20526;-72
2024/04/09 12:29:29;;;;;;;20.27;19.07;;;;;;;;;;5471790;26;20462;-74
2024/04/09 12:31:55;;;;;;;20.73;19.53;;;;;;;;;;5500868;26;20457;-72
2024/04/09 12:34:25;;;;;;;20.17;18.97;;;;;;;;;;5477843;26;20468;-73
2024/04/09 12:36:51;;;;;;;19.20;18.20;;;;;;;;;;5451776;26;20468;-73
2024/04/09 12:39:19;;;;;;;19.73;18.37;;;;;;;;;;5489793;26;20586;-72
2024/04/09 12:41:46;;;;;;;19.63;18.37;;;;;;;;;;5485211;26;20454;-72
2024/04/09 12:44:15;;;;;;;18.60;17.60;;;;;;;;;;5484530;26;20436;-73
2024/04/09 12:46:43;;;;;;;18.20;17.10;;;;;;;;;;5451610;26;20813;-73
2024/04/09 12:49:12;;;;;;;18.53;17.33;;;;;;;;;;5456907;26;20447;-73
2024/04/09 12:51:39;;;;;;;18.83;17.47;;;;;;;;;;5509451;26;20547;-73
2024/04/09 12:54:07;;;;;;;20.20;19.03;;;;;;;;;;5507896;26;20471;-76
2024/04/09 12:56:34;;;;;;;19.80;18.70;;;;;;;;;;5474163;26;20449;-75
2024/04/09 12:59:03;;;;;;;18.17;17.27;;;;;;;;;;5478873;26;20518;-76
2024/04/09 13:01:29;;;;;;;17.70;16.50;;;;;;;;;;5465757;26;20603;-75
2024/04/09 13:04:01;;;;;;;17.77;16.70;;;;;;;;;;5452056;26;20467;-76
2024/04/09 13:06:27;;;;;;;18.67;17.47;;;;;;;;;;5451277;26;20586;-75
2024/04/09 13:08:56;;;;;;;18.20;17.20;;;;;;;;;;5450837;26;20504;-76
2024/04/09 13:11:22;;;;;;;18.87;17.87;;;;;;;;;;5450991;26;20533;-75
2024/04/09 13:13:51;;;;;;;18.87;17.83;;;;;;;;;;5451805;26;20489;-75
2024/04/09 13:16:17;;;;;;;18.87;17.87;;;;;;;;;;5453947;26;20544;-78
2024/04/09 13:18:48;;;;;;;18.97;18.03;;;;;;;;;;5455984;26;20560;-79
2024/04/09 13:21:17;;;;;;;19.63;18.63;;;;;;;;;;5488818;26;20998;-76
2024/04/09 13:23:46;;;;;;;19.30;18.30;;;;;;;;;;5488238;26;21090;-78
2024/04/09 13:26:12;;;;;;;19.57;18.47;;;;;;;;;;5487552;26;20443;-78
2024/04/09 13:28:42;;;;;;;19.30;18.30;;;;;;;;;;5489656;26;20423;-77
2024/04/09 13:31:08;;;;;;;19.30;18.30;;;;;;;;;;5489786;26;21007;-77
2024/04/09 13:33:36;;;;;;;18.90;17.90;;;;;;;;;;5490066;26;20449;-78
2024/04/09 13:36:03;;;;;;;19.80;18.70;;;;;;;;;;5489826;26;20470;-77
2024/04/09 13:38:34;;;;;;;19.67;18.57;;;;;;;;;;5489582;26;20533;-76
2024/04/09 13:41:00;;;;;;;19.90;18.80;;;;;;;;;;5493725;26;20456;-78
2024/04/09 13:43:30;;;;;;;19.20;18.20;;;;;;;;;;5493200;26;20423;-78
2024/04/09 13:45:56;;;;;;;19.43;18.33;;;;;;;;;;5491371;26;20510;-77
2024/04/09 13:48:24;;;;;;;18.93;17.93;;;;;;;;;;5493158;26;20476;-78
2024/04/09 13:50:54;;;;;;;19.57;18.40;;;;;;;;;;5490060;26;20460;-78
2024/04/09 13:53:22;;;;;;;19.30;17.93;;;;;;;;;;5494441;26;20542;-78
2024/04/09 13:55:51;;;;;;;19.07;17.87;;;;;;;;;;5489592;26;20519;-78
2024/04/09 13:58:19;;;;;;;19.20;17.87;;;;;;;;;;5489947;26;20476;-77
2024/04/09 14:00:45;;;;;;;18.63;17.70;;;;;;;;;;5489673;26;21426;-78
2024/04/09 14:03:14;;;;;;;18.63;17.50;;;;;;;;;;5483526;26;21054;-78
2024/04/09 14:05:40;;;;;;;19.03;18.03;;;;;;;;;;5456426;26;20464;-77
2024/04/09 14:08:09;;;;;;;18.90;17.70;;;;;;;;;;5455713;26;20442;-76
2024/04/09 14:10:35;;;;;;;19.47;18.37;;;;;;;;;;5455267;26;20515;-79
2024/04/09 14:13:07;;;;;;;18.93;17.93;;;;;;;;;;5455056;26;20538;-77
2024/04/09 14:15:33;;;;;;;18.77;17.67;;;;;;;;;;5454110;26;20474;-77
2024/04/09 14:18:02;;;;;;;19.60;18.53;;;;;;;;;;5458315;26;20452;-77
2024/04/09 14:20:29;;;;;;;19.27;17.70;;;;;;;;;;5468099;26;21021;-77
2024/04/09 14:22:57;;;;;;;19.30;18.17;;;;;;;;;;5453508;26;20516;-78
2024/04/09 14:25:24;;;;;;;22.73;20.90;;;;;;;;;;5460538;26;20449;-76